Npaoc Amazonas — PWAZ — position and weather

sailwx.info

Track history (hours):
 
Tides and Currents Weather Stations Pressure Air Temp Water Temp Dewpoint Dewpoint Depression Visibility Wind Speed Wind Dir Waves Ship Positions

Npaoc Amazonas

Last reported at 2014-May-13 19:27 UTC. Time now 2014-Nov-23 19:53 UTC.
Position S 24°04' W 046°18'.
Warning: this ship's position is months out of date.

Length 91 m; draft 4.5 m.

Type: Military. MMSI: 710493000.

Date/timePositionNaut miles runAvg speedWind from/ knotsBaromVisibWave heightAir tempDewpointWater temp
2014-May-13 19:27S 24°04' W 046°18'6 3.3
2014-May-13 17:33S 23°57' W 046°18'0 0.0
2014-May-13 16:33S 23°57' W 046°18'0 0.0
2014-May-13 15:17S 23°57' W 046°18'0 0.0
2014-May-13 14:29S 23°57' W 046°18'0 0.0
2014-May-13 13:31S 23°57' W 046°18'0 0.0
2014-May-13 12:30S 23°57' W 046°18'0 0.0
2014-May-13 10:29S 23°57' W 046°18'0 0.0
2014-May-13 09:29S 23°57' W 046°18'0 0.0
2014-May-13 08:31S 23°57' W 046°18'0 0.0
2014-May-13 07:33S 23°57' W 046°18'0 0.0
2014-May-13 06:27S 23°57' W 046°18'0 0.0
2014-May-13 05:32S 23°57' W 046°18'0 0.0
2014-May-13 04:29S 23°57' W 046°18'0 0.0
2014-May-13 03:28S 23°57' W 046°18'0 0.0
2014-May-13 02:30S 23°57' W 046°18'0 0.0
2014-May-13 01:24S 23°57' W 046°18'0 0.0
2014-May-13 00:32S 23°57' W 046°18'0 0.0
2014-May-12 23:32S 23°57' W 046°18'0 0.0
2014-May-12 22:28S 23°57' W 046°18'0 0.0
2014-May-12 21:33S 23°57' W 046°18'0 0.0
2014-May-12 19:26S 23°57' W 046°18'0 0.0
2014-May-12 18:32S 23°57' W 046°18'0 0.0
2014-May-12 17:55S 23°57' W 046°18'0 0.0
2014-May-12 17:31S 23°57' W 046°18'0 0.0
2014-May-12 16:30S 23°57' W 046°18'0 0.0
2014-May-12 15:33S 23°57' W 046°18'0 0.0
2014-May-12 14:26S 23°57' W 046°18'0 0.0
2014-May-12 13:32S 23°57' W 046°18'0 0.0
2014-May-12 12:28S 23°57' W 046°18'0 0.0
2014-May-12 11:33S 23°57' W 046°18'0 0.0
2014-May-12 07:22S 23°57' W 046°18'0 0.0
2014-May-12 05:17S 23°57' W 046°18'0 0.0
2014-May-12 04:29S 23°57' W 046°18'0 0.0
2014-May-12 03:29S 23°57' W 046°18'0 0.0
2014-May-12 02:31S 23°57' W 046°18'0 0.0
2014-May-12 02:27S 23°57' W 046°18'0 0.0
2014-May-12 01:30S 23°58' W 046°18'0 0.0
2014-May-12 00:33S 23°57' W 046°18'0 0.0
2014-May-11 23:29S 23°57' W 046°18'0 0.0
2014-May-11 22:26S 23°57' W 046°18'0 0.0
2014-May-11 21:28S 23°57' W 046°18'0 0.0
2014-May-11 20:31S 23°57' W 046°18'0 0.0
2014-May-11 19:32S 23°58' W 046°18'5 5.6
2014-May-11 18:33S 24°03' W 046°21'2 0.1
2014-May-10 00:33S 24°00' W 046°20'3 3.3
2014-May-09 23:31S 23°58' W 046°18'0 0.0
2014-May-08 11:13S 23°58' W 046°18'2 3.0
2014-May-08 10:33S 23°59' W 046°18'4 4.3
2014-May-08 09:33S 24°04' W 046°18'  
Track history (hours):
 
Tides and Currents Weather Stations Pressure Air Temp Water Temp Dewpoint Dewpoint Depression Visibility Wind Speed Wind Dir Waves Ship Positions

Npaoc Amazonas

Last reported at 2014-May-13 19:27 UTC. Time now 2014-Nov-23 19:53 UTC.
Position S 24°04' W 046°18'.
Warning: this ship's position is months out of date.

Length 91 m; draft 4.5 m.

Type: Military. MMSI: 710493000.

Date/timePositionNaut miles runAvg speedWind from/ knotsBaromVisibWave heightAir tempDewpointWater temp
2014-May-13 19:27S 24°04' W 046°18'6 3.3
2014-May-13 17:33S 23°57' W 046°18'0 0.0
2014-May-13 16:33S 23°57' W 046°18'0 0.0
2014-May-13 15:17S 23°57' W 046°18'0 0.0
2014-May-13 14:29S 23°57' W 046°18'0 0.0
2014-May-13 13:31S 23°57' W 046°18'0 0.0
2014-May-13 12:30S 23°57' W 046°18'0 0.0
2014-May-13 10:29S 23°57' W 046°18'0 0.0
2014-May-13 09:29S 23°57' W 046°18'0 0.0
2014-May-13 08:31S 23°57' W 046°18'0 0.0
2014-May-13 07:33S 23°57' W 046°18'0 0.0
2014-May-13 06:27S 23°57' W 046°18'0 0.0
2014-May-13 05:32S 23°57' W 046°18'0 0.0
2014-May-13 04:29S 23°57' W 046°18'0 0.0
2014-May-13 03:28S 23°57' W 046°18'0 0.0
2014-May-13 02:30S 23°57' W 046°18'0 0.0
2014-May-13 01:24S 23°57' W 046°18'0 0.0
2014-May-13 00:32S 23°57' W 046°18'0 0.0
2014-May-12 23:32S 23°57' W 046°18'0 0.0
2014-May-12 22:28S 23°57' W 046°18'0 0.0
2014-May-12 21:33S 23°57' W 046°18'0 0.0
2014-May-12 19:26S 23°57' W 046°18'0 0.0
2014-May-12 18:32S 23°57' W 046°18'0 0.0
2014-May-12 17:55S 23°57' W 046°18'0 0.0
2014-May-12 17:31S 23°57' W 046°18'0 0.0
2014-May-12 16:30S 23°57' W 046°18'0 0.0
2014-May-12 15:33S 23°57' W 046°18'0 0.0
2014-May-12 14:26S 23°57' W 046°18'0 0.0
2014-May-12 13:32S 23°57' W 046°18'0 0.0
2014-May-12 12:28S 23°57' W 046°18'0 0.0
2014-May-12 11:33S 23°57' W 046°18'0 0.0
2014-May-12 07:22S 23°57' W 046°18'0 0.0
2014-May-12 05:17S 23°57' W 046°18'0 0.0
2014-May-12 04:29S 23°57' W 046°18'0 0.0
2014-May-12 03:29S 23°57' W 046°18'0 0.0
2014-May-12 02:31S 23°57' W 046°18'0 0.0
2014-May-12 02:27S 23°57' W 046°18'0 0.0
2014-May-12 01:30S 23°58' W 046°18'0 0.0
2014-May-12 00:33S 23°57' W 046°18'0 0.0
2014-May-11 23:29S 23°57' W 046°18'0 0.0
2014-May-11 22:26S 23°57' W 046°18'0 0.0
2014-May-11 21:28S 23°57' W 046°18'0 0.0
2014-May-11 20:31S 23°57' W 046°18'0 0.0
2014-May-11 19:32S 23°58' W 046°18'5 5.6
2014-May-11 18:33S 24°03' W 046°21'2 0.1
2014-May-10 00:33S 24°00' W 046°20'3 3.3
2014-May-09 23:31S 23°58' W 046°18'0 0.0
2014-May-08 11:13S 23°58' W 046°18'2 3.0
2014-May-08 10:33S 23°59' W 046°18'4 4.3
2014-May-08 09:33S 24°04' W 046°18'  

Dump ship's entire track history